sensor_id;sensor_type;location;lat;lon;timestamp;temperature;humidity
792;DHT22;379;49.022;12.148;2022-09-09T00:02:08;13.60;99.90
792;DHT22;379;49.022;12.148;2022-09-09T00:04:41;13.60;99.90
792;DHT22;379;49.022;12.148;2022-09-09T00:07:13;13.60;99.90
792;DHT22;379;49.022;12.148;2022-09-09T00:09:46;13.60;99.90
792;DHT22;379;49.022;12.148;2022-09-09T00:12:16;13.60;99.90
792;DHT22;379;49.022;12.148;2022-09-09T00:14:48;13.60;99.90
792;DHT22;379;49.022;12.148;2022-09-09T00:17:26;13.60;99.90
792;DHT22;379;49.022;12.148;2022-09-09T00:20:03;13.60;99.90
792;DHT22;379;49.022;12.148;2022-09-09T00:22:32;13.70;99.90
792;DHT22;379;49.022;12.148;2022-09-09T00:25:04;13.70;99.90
792;DHT22;379;49.022;12.148;2022-09-09T00:27:40;13.70;99.90
792;DHT22;379;49.022;12.148;2022-09-09T00:30:15;13.70;99.90
792;DHT22;379;49.022;12.148;2022-09-09T00:32:45;13.70;99.90
792;DHT22;379;49.022;12.148;2022-09-09T00:35:17;13.70;99.90
792;DHT22;379;49.022;12.148;2022-09-09T00:37:46;13.70;99.90
792;DHT22;379;49.022;12.148;2022-09-09T00:40:23;13.70;99.90
792;DHT22;379;49.022;12.148;2022-09-09T00:42:58;13.80;99.90
792;DHT22;379;49.022;12.148;2022-09-09T00:45:50;13.70;99.90
792;DHT22;379;49.022;12.148;2022-09-09T00:48:20;13.70;99.90
792;DHT22;379;49.022;12.148;2022-09-09T00:50:52;13.70;99.90
792;DHT22;379;49.022;12.148;2022-09-09T00:53:30;13.70;99.90
792;DHT22;379;49.022;12.148;2022-09-09T00:56:12;13.60;99.90
792;DHT22;379;49.022;12.148;2022-09-09T00:58:40;13.60;99.90
792;DHT22;379;49.022;12.148;2022-09-09T01:01:10;13.60;99.90
792;DHT22;379;49.022;12.148;2022-09-09T01:03:44;13.60;99.90
792;DHT22;379;49.022;12.148;2022-09-09T01:06:15;13.50;99.90
792;DHT22;379;49.022;12.148;2022-09-09T01:09:08;13.60;99.90
792;DHT22;379;49.022;12.148;2022-09-09T01:11:48;13.60;99.90
792;DHT22;379;49.022;12.148;2022-09-09T01:14:27;13.50;99.90
792;DHT22;379;49.022;12.148;2022-09-09T01:16:58;13.60;99.90
792;DHT22;379;49.022;12.148;2022-09-09T01:19:36;13.60;99.90
792;DHT22;379;49.022;12.148;2022-09-09T01:22:10;13.60;99.90
792;DHT22;379;49.022;12.148;2022-09-09T01:24:45;13.60;99.90
792;DHT22;379;49.022;12.148;2022-09-09T01:27:19;13.60;99.90
792;DHT22;379;49.022;12.148;2022-09-09T01:29:47;13.60;99.90
792;DHT22;379;49.022;12.148;2022-09-09T01:32:39;13.60;99.90
792;DHT22;379;49.022;12.148;2022-09-09T01:35:08;13.50;99.90
792;DHT22;379;49.022;12.148;2022-09-09T01:37:36;13.50;99.90
792;DHT22;379;49.022;12.148;2022-09-09T01:40:03;13.50;99.90
792;DHT22;379;49.022;12.148;2022-09-09T01:42:31;13.50;99.90
792;DHT22;379;49.022;12.148;2022-09-09T01:44:58;13.50;99.90
792;DHT22;379;49.022;12.148;2022-09-09T01:47:25;13.40;99.90
792;DHT22;379;49.022;12.148;2022-09-09T01:49:52;13.40;99.90
792;DHT22;379;49.022;12.148;2022-09-09T01:52:18;13.40;99.90
792;DHT22;379;49.022;12.148;2022-09-09T01:54:45;13.40;99.90
792;DHT22;379;49.022;12.148;2022-09-09T01:57:17;13.40;99.90
792;DHT22;379;49.022;12.148;2022-09-09T01:59:56;13.40;99.90
792;DHT22;379;49.022;12.148;2022-09-09T02:02:27;13.40;99.90
792;DHT22;379;49.022;12.148;2022-09-09T02:05:03;13.30;99.90
792;DHT22;379;49.022;12.148;2022-09-09T02:07:39;13.30;99.90
792;DHT22;379;49.022;12.148;2022-09-09T02:10:10;13.20;99.90
792;DHT22;379;49.022;12.148;2022-09-09T02:12:41;13.20;99.90
792;DHT22;379;49.022;12.148;2022-09-09T02:15:17;13.20;99.90
792;DHT22;379;49.022;12.148;2022-09-09T02:17:46;13.20;99.90
792;DHT22;379;49.022;12.148;2022-09-09T02:20:16;13.20;99.90
792;DHT22;379;49.022;12.148;2022-09-09T02:22:46;13.20;99.90
792;DHT22;379;49.022;12.148;2022-09-09T02:25:17;13.20;99.90
792;DHT22;379;49.022;12.148;2022-09-09T02:27:45;13.20;99.90
792;DHT22;379;49.022;12.148;2022-09-09T02:30:15;13.30;99.90
792;DHT22;379;49.022;12.148;2022-09-09T02:32:43;13.30;99.90
792;DHT22;379;49.022;12.148;2022-09-09T02:35:14;13.40;99.90
792;DHT22;379;49.022;12.148;2022-09-09T02:37:42;13.40;99.90
792;DHT22;379;49.022;12.148;2022-09-09T02:40:12;13.40;99.90
792;DHT22;379;49.022;12.148;2022-09-09T02:42:41;13.30;99.90
792;DHT22;379;49.022;12.148;2022-09-09T02:45:09;13.30;99.90
792;DHT22;379;49.022;12.148;2022-09-09T02:47:43;13.40;99.90
792;DHT22;379;49.022;12.148;2022-09-09T02:50:16;13.40;99.90
792;DHT22;379;49.022;12.148;2022-09-09T02:52:56;13.40;99.90
792;DHT22;379;49.022;12.148;2022-09-09T02:55:32;13.40;99.90
792;DHT22;379;49.022;12.148;2022-09-09T02:58:03;13.40;99.90
792;DHT22;379;49.022;12.148;2022-09-09T03:00:31;13.40;99.90
792;DHT22;379;49.022;12.148;2022-09-09T03:02:59;13.40;99.90
792;DHT22;379;49.022;12.148;2022-09-09T03:05:26;13.40;99.90
792;DHT22;379;49.022;12.148;2022-09-09T03:07:53;13.30;99.90
792;DHT22;379;49.022;12.148;2022-09-09T03:10:20;13.40;99.90
792;DHT22;379;49.022;12.148;2022-09-09T03:12:47;13.40;99.90
792;DHT22;379;49.022;12.148;2022-09-09T03:15:13;13.40;99.90
792;DHT22;379;49.022;12.148;2022-09-09T03:17:40;13.50;99.90
792;DHT22;379;49.022;12.148;2022-09-09T03:20:09;13.50;99.90
792;DHT22;379;49.022;12.148;2022-09-09T03:22:36;13.60;99.90
792;DHT22;379;49.022;12.148;2022-09-09T03:25:03;13.60;99.90
792;DHT22;379;49.022;12.148;2022-09-09T03:27:31;13.60;99.90
792;DHT22;379;49.022;12.148;2022-09-09T03:29:58;13.60;99.90
792;DHT22;379;49.022;12.148;2022-09-09T03:32:25;13.60;99.90
792;DHT22;379;49.022;12.148;2022-09-09T03:34:52;13.70;99.90
792;DHT22;379;49.022;12.148;2022-09-09T03:37:20;13.70;99.90
792;DHT22;379;49.022;12.148;2022-09-09T03:39:48;13.70;99.90
792;DHT22;379;49.022;12.148;2022-09-09T03:42:15;13.70;99.90
792;DHT22;379;49.022;12.148;2022-09-09T03:44:44;13.60;99.90
792;DHT22;379;49.022;12.148;2022-09-09T03:47:11;13.70;99.90
792;DHT22;379;49.022;12.148;2022-09-09T03:49:38;13.70;99.90
792;DHT22;379;49.022;12.148;2022-09-09T03:52:05;13.70;99.90
792;DHT22;379;49.022;12.148;2022-09-09T03:54:33;13.70;99.90
792;DHT22;379;49.022;12.148;2022-09-09T03:57:00;13.60;99.90
792;DHT22;379;49.022;12.148;2022-09-09T03:59:27;13.60;99.90
792;DHT22;379;49.022;12.148;2022-09-09T04:01:53;13.60;99.90
792;DHT22;379;49.022;12.148;2022-09-09T04:04:20;13.60;99.90
792;DHT22;379;49.022;12.148;2022-09-09T04:06:47;13.60;99.90
792;DHT22;379;49.022;12.148;2022-09-09T04:09:16;13.60;99.90
792;DHT22;379;49.022;12.148;2022-09-09T04:11:44;13.60;99.90
792;DHT22;379;49.022;12.148;2022-09-09T04:14:11;13.60;99.90
792;DHT22;379;49.022;12.148;2022-09-09T04:16:38;13.60;99.90
792;DHT22;379;49.022;12.148;2022-09-09T04:19:08;13.50;99.90
792;DHT22;379;49.022;12.148;2022-09-09T04:21:37;13.50;99.90
792;DHT22;379;49.022;12.148;2022-09-09T04:24:05;13.50;99.90
792;DHT22;379;49.022;12.148;2022-09-09T04:26:32;13.50;99.90
792;DHT22;379;49.022;12.148;2022-09-09T04:29:00;13.50;99.90
792;DHT22;379;49.022;12.148;2022-09-09T04:31:27;13.40;99.90
792;DHT22;379;49.022;12.148;2022-09-09T04:33:54;13.40;99.90
792;DHT22;379;49.022;12.148;2022-09-09T04:36:22;13.40;99.90
792;DHT22;379;49.022;12.148;2022-09-09T04:38:48;13.30;99.90
792;DHT22;379;49.022;12.148;2022-09-09T04:41:15;13.30;99.90
792;DHT22;379;49.022;12.148;2022-09-09T04:43:43;13.30;99.90
792;DHT22;379;49.022;12.148;2022-09-09T04:46:11;13.20;99.90
792;DHT22;379;49.022;12.148;2022-09-09T04:48:38;13.10;99.90
792;DHT22;379;49.022;12.148;2022-09-09T04:51:12;13.10;99.90
792;DHT22;379;49.022;12.148;2022-09-09T04:53:39;13.10;99.90
792;DHT22;379;49.022;12.148;2022-09-09T04:56:08;13.10;99.90
792;DHT22;379;49.022;12.148;2022-09-09T04:58:35;13.00;99.90
792;DHT22;379;49.022;12.148;2022-09-09T05:01:04;13.00;99.90
792;DHT22;379;49.022;12.148;2022-09-09T05:03:32;13.00;99.90
792;DHT22;379;49.022;12.148;2022-09-09T05:06:04;13.00;99.90
792;DHT22;379;49.022;12.148;2022-09-09T05:08:31;13.00;99.90
792;DHT22;379;49.022;12.148;2022-09-09T05:10:58;13.10;99.90
792;DHT22;379;49.022;12.148;2022-09-09T05:13:25;13.20;99.90
792;DHT22;379;49.022;12.148;2022-09-09T05:15:53;13.20;99.90
792;DHT22;379;49.022;12.148;2022-09-09T05:18:20;13.30;99.90
792;DHT22;379;49.022;12.148;2022-09-09T05:20:49;13.30;99.90
792;DHT22;379;49.022;12.148;2022-09-09T05:23:16;13.50;99.90
792;DHT22;379;49.022;12.148;2022-09-09T05:25:43;13.50;99.90
792;DHT22;379;49.022;12.148;2022-09-09T05:28:12;13.70;99.90
792;DHT22;379;49.022;12.148;2022-09-09T05:30:38;13.80;99.90
792;DHT22;379;49.022;12.148;2022-09-09T05:33:05;13.90;99.90
792;DHT22;379;49.022;12.148;2022-09-09T05:35:34;14.00;99.90
792;DHT22;379;49.022;12.148;2022-09-09T05:38:02;14.20;99.90
792;DHT22;379;49.022;12.148;2022-09-09T05:40:29;14.30;99.90
792;DHT22;379;49.022;12.148;2022-09-09T05:43:00;14.50;99.90
792;DHT22;379;49.022;12.148;2022-09-09T05:45:27;14.60;99.90
792;DHT22;379;49.022;12.148;2022-09-09T05:47:54;14.60;99.90
792;DHT22;379;49.022;12.148;2022-09-09T05:50:20;14.70;99.90
792;DHT22;379;49.022;12.148;2022-09-09T05:52:47;14.80;99.90
792;DHT22;379;49.022;12.148;2022-09-09T05:55:16;15.00;99.90
792;DHT22;379;49.022;12.148;2022-09-09T05:57:48;15.20;99.90
792;DHT22;379;49.022;12.148;2022-09-09T06:00:17;15.40;99.90
792;DHT22;379;49.022;12.148;2022-09-09T06:02:50;15.60;99.90
792;DHT22;379;49.022;12.148;2022-09-09T06:05:17;15.80;99.90
792;DHT22;379;49.022;12.148;2022-09-09T06:07:44;15.90;99.90
792;DHT22;379;49.022;12.148;2022-09-09T06:10:11;15.90;99.90
792;DHT22;379;49.022;12.148;2022-09-09T06:12:40;16.00;99.90
792;DHT22;379;49.022;12.148;2022-09-09T06:15:08;16.00;99.90
792;DHT22;379;49.022;12.148;2022-09-09T06:17:34;15.90;99.90
792;DHT22;379;49.022;12.148;2022-09-09T06:20:02;15.80;99.90
792;DHT22;379;49.022;12.148;2022-09-09T06:22:29;15.60;99.90
792;DHT22;379;49.022;12.148;2022-09-09T06:24:57;15.50;99.90
792;DHT22;379;49.022;12.148;2022-09-09T06:27:27;15.40;99.90
792;DHT22;379;49.022;12.148;2022-09-09T06:29:55;15.30;99.90
792;DHT22;379;49.022;12.148;2022-09-09T06:32:22;15.30;99.90
792;DHT22;379;49.022;12.148;2022-09-09T06:34:49;15.70;99.90
792;DHT22;379;49.022;12.148;2022-09-09T06:37:15;16.20;99.90
792;DHT22;379;49.022;12.148;2022-09-09T06:39:42;16.70;99.90
792;DHT22;379;49.022;12.148;2022-09-09T06:42:09;17.10;99.90
792;DHT22;379;49.022;12.148;2022-09-09T06:44:36;17.40;99.90
792;DHT22;379;49.022;12.148;2022-09-09T06:47:05;17.40;99.90
792;DHT22;379;49.022;12.148;2022-09-09T06:49:32;17.30;99.90
792;DHT22;379;49.022;12.148;2022-09-09T06:52:00;17.30;99.90
792;DHT22;379;49.022;12.148;2022-09-09T06:54:27;17.10;99.90
792;DHT22;379;49.022;12.148;2022-09-09T06:56:54;17.20;99.90
792;DHT22;379;49.022;12.148;2022-09-09T06:59:21;17.20;99.90
792;DHT22;379;49.022;12.148;2022-09-09T07:01:48;17.20;99.90
792;DHT22;379;49.022;12.148;2022-09-09T07:04:18;17.50;99.90
792;DHT22;379;49.022;12.148;2022-09-09T07:06:46;17.80;99.90
792;DHT22;379;49.022;12.148;2022-09-09T07:09:14;18.00;99.90
792;DHT22;379;49.022;12.148;2022-09-09T07:11:43;18.20;99.90
792;DHT22;379;49.022;12.148;2022-09-09T07:14:11;18.50;99.90
792;DHT22;379;49.022;12.148;2022-09-09T07:16:39;18.80;99.90
792;DHT22;379;49.022;12.148;2022-09-09T07:19:07;19.10;99.20
792;DHT22;379;49.022;12.148;2022-09-09T07:21:35;19.50;98.40
792;DHT22;379;49.022;12.148;2022-09-09T07:24:02;19.70;96.40
792;DHT22;379;49.022;12.148;2022-09-09T07:26:33;19.90;95.20
792;DHT22;379;49.022;12.148;2022-09-09T07:29:00;20.00;94.00
792;DHT22;379;49.022;12.148;2022-09-09T07:31:29;20.10;94.00
792;DHT22;379;49.022;12.148;2022-09-09T07:33:56;20.00;92.70
792;DHT22;379;49.022;12.148;2022-09-09T07:36:24;19.80;92.10
792;DHT22;379;49.022;12.148;2022-09-09T07:38:54;19.60;93.00
792;DHT22;379;49.022;12.148;2022-09-09T07:41:23;19.60;93.40
792;DHT22;379;49.022;12.148;2022-09-09T07:43:52;19.60;94.20
792;DHT22;379;49.022;12.148;2022-09-09T07:46:21;19.70;93.60
792;DHT22;379;49.022;12.148;2022-09-09T07:48:49;19.80;93.00
792;DHT22;379;49.022;12.148;2022-09-09T07:51:19;20.00;93.20
792;DHT22;379;49.022;12.148;2022-09-09T07:53:48;20.30;93.00
792;DHT22;379;49.022;12.148;2022-09-09T07:56:19;20.60;91.50
792;DHT22;379;49.022;12.148;2022-09-09T07:58:49;20.50;91.70
792;DHT22;379;49.022;12.148;2022-09-09T08:01:21;20.20;91.80
792;DHT22;379;49.022;12.148;2022-09-09T08:03:53;19.90;92.00
792;DHT22;379;49.022;12.148;2022-09-09T08:06:20;19.50;93.00
792;DHT22;379;49.022;12.148;2022-09-09T08:08:50;19.10;94.00
792;DHT22;379;49.022;12.148;2022-09-09T08:11:18;18.70;95.00
792;DHT22;379;49.022;12.148;2022-09-09T08:13:45;18.50;96.20
792;DHT22;379;49.022;12.148;2022-09-09T08:16:16;18.20;97.30
792;DHT22;379;49.022;12.148;2022-09-09T08:18:43;18.00;98.20
792;DHT22;379;49.022;12.148;2022-09-09T08:21:12;17.80;99.80
792;DHT22;379;49.022;12.148;2022-09-09T08:23:40;17.60;99.90
792;DHT22;379;49.022;12.148;2022-09-09T08:26:10;17.30;99.90
792;DHT22;379;49.022;12.148;2022-09-09T08:28:38;17.20;99.90
792;DHT22;379;49.022;12.148;2022-09-09T08:31:07;17.10;99.90
792;DHT22;379;49.022;12.148;2022-09-09T08:33:34;16.90;99.90
792;DHT22;379;49.022;12.148;2022-09-09T08:36:02;16.90;99.90
792;DHT22;379;49.022;12.148;2022-09-09T08:38:29;16.80;99.90
792;DHT22;379;49.022;12.148;2022-09-09T08:41:02;16.70;99.90
792;DHT22;379;49.022;12.148;2022-09-09T08:43:31;16.50;99.90
792;DHT22;379;49.022;12.148;2022-09-09T08:46:04;16.50;99.90
792;DHT22;379;49.022;12.148;2022-09-09T08:48:44;16.60;99.90
792;DHT22;379;49.022;12.148;2022-09-09T08:51:14;16.70;99.90
792;DHT22;379;49.022;12.148;2022-09-09T08:53:44;16.90;99.90
792;DHT22;379;49.022;12.148;2022-09-09T08:56:14;17.10;99.90
792;DHT22;379;49.022;12.148;2022-09-09T08:58:47;17.30;99.90
792;DHT22;379;49.022;12.148;2022-09-09T09:01:28;17.40;99.90
792;DHT22;379;49.022;12.148;2022-09-09T09:04:02;17.60;99.90
792;DHT22;379;49.022;12.148;2022-09-09T09:06:40;17.90;99.90
792;DHT22;379;49.022;12.148;2022-09-09T09:09:12;18.20;99.90
792;DHT22;379;49.022;12.148;2022-09-09T09:11:46;18.70;99.90
792;DHT22;379;49.022;12.148;2022-09-09T09:14:17;19.00;99.90
792;DHT22;379;49.022;12.148;2022-09-09T09:16:51;19.20;99.90
792;DHT22;379;49.022;12.148;2022-09-09T09:19:19;19.40;99.90
792;DHT22;379;49.022;12.148;2022-09-09T09:21:50;19.70;99.60
792;DHT22;379;49.022;12.148;2022-09-09T09:24:20;20.10;99.90
792;DHT22;379;49.022;12.148;2022-09-09T09:26:48;20.50;99.40
792;DHT22;379;49.022;12.148;2022-09-09T09:29:17;20.80;98.90
792;DHT22;379;49.022;12.148;2022-09-09T09:31:45;21.10;97.30
792;DHT22;379;49.022;12.148;2022-09-09T09:34:14;21.10;95.40
792;DHT22;379;49.022;12.148;2022-09-09T09:36:44;21.00;93.60
792;DHT22;379;49.022;12.148;2022-09-09T09:39:23;20.90;94.20
792;DHT22;379;49.022;12.148;2022-09-09T09:41:50;20.80;93.80
792;DHT22;379;49.022;12.148;2022-09-09T09:44:24;20.80;93.90
792;DHT22;379;49.022;12.148;2022-09-09T09:46:51;20.80;94.80
792;DHT22;379;49.022;12.148;2022-09-09T09:49:19;20.70;93.60
792;DHT22;379;49.022;12.148;2022-09-09T09:51:46;20.70;93.10
792;DHT22;379;49.022;12.148;2022-09-09T09:54:18;20.80;93.30
792;DHT22;379;49.022;12.148;2022-09-09T09:56:48;20.90;93.00
792;DHT22;379;49.022;12.148;2022-09-09T09:59:21;20.90;90.70
792;DHT22;379;49.022;12.148;2022-09-09T10:01:48;20.90;91.70
792;DHT22;379;49.022;12.148;2022-09-09T10:04:17;21.00;92.20
792;DHT22;379;49.022;12.148;2022-09-09T10:06:47;21.00;92.10
792;DHT22;379;49.022;12.148;2022-09-09T10:09:24;21.10;91.80
792;DHT22;379;49.022;12.148;2022-09-09T10:11:58;21.20;89.10
792;DHT22;379;49.022;12.148;2022-09-09T10:14:32;21.20;90.00
792;DHT22;379;49.022;12.148;2022-09-09T10:17:11;21.40;91.10
792;DHT22;379;49.022;12.148;2022-09-09T10:19:42;21.70;91.10
792;DHT22;379;49.022;12.148;2022-09-09T10:22:25;22.10;90.30
792;DHT22;379;49.022;12.148;2022-09-09T10:25:12;22.20;88.20
792;DHT22;379;49.022;12.148;2022-09-09T10:27:52;22.40;88.30
792;DHT22;379;49.022;12.148;2022-09-09T10:30:24;22.50;85.80
792;DHT22;379;49.022;12.148;2022-09-09T10:33:00;22.70;86.80
792;DHT22;379;49.022;12.148;2022-09-09T10:35:31;22.80;85.00
792;DHT22;379;49.022;12.148;2022-09-09T10:38:15;22.70;79.70
792;DHT22;379;49.022;12.148;2022-09-09T10:40:48;22.60;82.00
792;DHT22;379;49.022;12.148;2022-09-09T10:43:28;22.50;80.30
792;DHT22;379;49.022;12.148;2022-09-09T10:46:04;22.30;79.50
792;DHT22;379;49.022;12.148;2022-09-09T10:48:44;22.20;81.60
792;DHT22;379;49.022;12.148;2022-09-09T10:51:23;22.30;83.40
792;DHT22;379;49.022;12.148;2022-09-09T10:54:06;22.50;84.00
792;DHT22;379;49.022;12.148;2022-09-09T10:56:38;22.50;81.60
792;DHT22;379;49.022;12.148;2022-09-09T10:59:10;22.60;81.20
792;DHT22;379;49.022;12.148;2022-09-09T11:01:41;22.70;82.10
792;DHT22;379;49.022;12.148;2022-09-09T11:04:15;22.60;79.10
792;DHT22;379;49.022;12.148;2022-09-09T11:06:50;22.30;79.50
792;DHT22;379;49.022;12.148;2022-09-09T11:09:22;21.90;80.10
792;DHT22;379;49.022;12.148;2022-09-09T11:11:53;21.70;81.80
792;DHT22;379;49.022;12.148;2022-09-09T11:14:25;21.60;83.50
792;DHT22;379;49.022;12.148;2022-09-09T11:16:57;21.50;83.60
792;DHT22;379;49.022;12.148;2022-09-09T11:19:28;21.40;83.20
792;DHT22;379;49.022;12.148;2022-09-09T11:21:57;21.30;83.00
792;DHT22;379;49.022;12.148;2022-09-09T11:24:29;21.10;83.60
792;DHT22;379;49.022;12.148;2022-09-09T11:27:01;20.80;81.40
792;DHT22;379;49.022;12.148;2022-09-09T11:29:52;20.60;84.90
792;DHT22;379;49.022;12.148;2022-09-09T11:32:54;20.40;85.20
792;DHT22;379;49.022;12.148;2022-09-09T11:35:33;20.10;86.80
792;DHT22;379;49.022;12.148;2022-09-09T11:38:19;19.90;87.40
792;DHT22;379;49.022;12.148;2022-09-09T11:40:55;19.70;88.10
792;DHT22;379;49.022;12.148;2022-09-09T11:43:24;19.70;90.00
792;DHT22;379;49.022;12.148;2022-09-09T11:45:54;19.90;88.90
792;DHT22;379;49.022;12.148;2022-09-09T11:48:28;20.30;89.00
792;DHT22;379;49.022;12.148;2022-09-09T11:51:00;20.50;85.90
792;DHT22;379;49.022;12.148;2022-09-09T11:53:29;20.70;86.40
792;DHT22;379;49.022;12.148;2022-09-09T11:56:09;20.90;84.60
792;DHT22;379;49.022;12.148;2022-09-09T11:58:43;20.90;84.70
792;DHT22;379;49.022;12.148;2022-09-09T12:01:28;21.00;85.00
792;DHT22;379;49.022;12.148;2022-09-09T12:06:54;20.70;85.30
792;DHT22;379;49.022;12.148;2022-09-09T12:09:27;20.70;85.60
792;DHT22;379;49.022;12.148;2022-09-09T12:12:07;20.80;86.50
792;DHT22;379;49.022;12.148;2022-09-09T12:14:36;21.10;85.10
792;DHT22;379;49.022;12.148;2022-09-09T12:17:16;21.40;85.70
792;DHT22;379;49.022;12.148;2022-09-09T12:19:44;21.50;84.60
792;DHT22;379;49.022;12.148;2022-09-09T12:22:18;21.40;84.20
792;DHT22;379;49.022;12.148;2022-09-09T12:24:51;21.30;83.60
792;DHT22;379;49.022;12.148;2022-09-09T12:27:23;21.30;83.60
792;DHT22;379;49.022;12.148;2022-09-09T12:29:57;21.40;83.40
792;DHT22;379;49.022;12.148;2022-09-09T12:32:28;21.50;83.40
792;DHT22;379;49.022;12.148;2022-09-09T12:34:57;21.50;83.40
792;DHT22;379;49.022;12.148;2022-09-09T12:37:31;21.50;84.00
792;DHT22;379;49.022;12.148;2022-09-09T12:40:01;21.50;83.70
792;DHT22;379;49.022;12.148;2022-09-09T12:42:30;21.50;82.90
792;DHT22;379;49.022;12.148;2022-09-09T12:45:00;21.30;83.20
792;DHT22;379;49.022;12.148;2022-09-09T12:47:38;21.10;83.50
792;DHT22;379;49.022;12.148;2022-09-09T12:50:15;21.00;84.50
792;DHT22;379;49.022;12.148;2022-09-09T12:52:43;20.90;84.40
792;DHT22;379;49.022;12.148;2022-09-09T12:55:17;20.90;85.20
792;DHT22;379;49.022;12.148;2022-09-09T12:57:46;20.90;85.50
792;DHT22;379;49.022;12.148;2022-09-09T13:00:17;20.80;84.60
792;DHT22;379;49.022;12.148;2022-09-09T13:02:47;20.80;85.30
792;DHT22;379;49.022;12.148;2022-09-09T13:05:18;20.80;85.10
792;DHT22;379;49.022;12.148;2022-09-09T13:07:45;20.90;83.40
792;DHT22;379;49.022;12.148;2022-09-09T13:10:14;21.00;82.90
792;DHT22;379;49.022;12.148;2022-09-09T13:12:42;21.30;81.00
792;DHT22;379;49.022;12.148;2022-09-09T13:15:18;21.30;81.40
792;DHT22;379;49.022;12.148;2022-09-09T13:17:50;21.50;81.60
792;DHT22;379;49.022;12.148;2022-09-09T13:20:18;21.60;81.40
792;DHT22;379;49.022;12.148;2022-09-09T13:22:47;21.90;80.70
792;DHT22;379;49.022;12.148;2022-09-09T13:25:21;22.10;79.70
792;DHT22;379;49.022;12.148;2022-09-09T13:27:57;22.30;78.00
792;DHT22;379;49.022;12.148;2022-09-09T13:30:28;22.50;79.20
792;DHT22;379;49.022;12.148;2022-09-09T13:33:03;22.80;78.40
792;DHT22;379;49.022;12.148;2022-09-09T13:35:31;23.00;77.30
792;DHT22;379;49.022;12.148;2022-09-09T13:37:58;23.20;77.30
792;DHT22;379;49.022;12.148;2022-09-09T13:40:26;23.20;75.50
792;DHT22;379;49.022;12.148;2022-09-09T13:42:55;23.30;75.60
792;DHT22;379;49.022;12.148;2022-09-09T13:45:25;23.20;74.20
792;DHT22;379;49.022;12.148;2022-09-09T13:47:53;23.10;75.40
792;DHT22;379;49.022;12.148;2022-09-09T13:50:22;23.20;75.80
792;DHT22;379;49.022;12.148;2022-09-09T13:52:49;23.20;75.20
792;DHT22;379;49.022;12.148;2022-09-09T13:55:19;23.10;75.10
792;DHT22;379;49.022;12.148;2022-09-09T13:57:54;22.80;75.40
792;DHT22;379;49.022;12.148;2022-09-09T14:00:21;22.60;76.10
792;DHT22;379;49.022;12.148;2022-09-09T14:02:49;22.50;76.60
792;DHT22;379;49.022;12.148;2022-09-09T14:05:16;22.60;76.90
792;DHT22;379;49.022;12.148;2022-09-09T14:07:44;22.90;75.50
792;DHT22;379;49.022;12.148;2022-09-09T14:10:11;23.30;74.60
792;DHT22;379;49.022;12.148;2022-09-09T14:12:38;23.60;74.00
792;DHT22;379;49.022;12.148;2022-09-09T14:15:06;23.80;72.10
792;DHT22;379;49.022;12.148;2022-09-09T14:17:33;23.90;70.30
792;DHT22;379;49.022;12.148;2022-09-09T14:20:03;23.90;69.60
792;DHT22;379;49.022;12.148;2022-09-09T14:22:33;24.00;69.30
792;DHT22;379;49.022;12.148;2022-09-09T14:25:00;24.00;66.90
792;DHT22;379;49.022;12.148;2022-09-09T14:27:27;24.00;67.40
792;DHT22;379;49.022;12.148;2022-09-09T14:29:54;23.90;67.80
792;DHT22;379;49.022;12.148;2022-09-09T14:32:21;23.80;68.10
792;DHT22;379;49.022;12.148;2022-09-09T14:34:48;23.60;67.90
792;DHT22;379;49.022;12.148;2022-09-09T14:37:16;23.30;68.80
792;DHT22;379;49.022;12.148;2022-09-09T14:39:44;23.00;68.80
792;DHT22;379;49.022;12.148;2022-09-09T14:42:12;22.80;69.20
792;DHT22;379;49.022;12.148;2022-09-09T14:44:39;22.60;70.20
792;DHT22;379;49.022;12.148;2022-09-09T14:47:06;22.60;69.70
792;DHT22;379;49.022;12.148;2022-09-09T14:49:33;22.60;70.60
792;DHT22;379;49.022;12.148;2022-09-09T14:52:00;22.60;69.40
792;DHT22;379;49.022;12.148;2022-09-09T14:54:28;22.40;69.80
792;DHT22;379;49.022;12.148;2022-09-09T14:56:55;22.20;70.00
792;DHT22;379;49.022;12.148;2022-09-09T14:59:23;22.00;70.80
792;DHT22;379;49.022;12.148;2022-09-09T15:01:49;21.80;71.60
792;DHT22;379;49.022;12.148;2022-09-09T15:04:16;21.70;72.30
792;DHT22;379;49.022;12.148;2022-09-09T15:06:43;21.70;72.50
792;DHT22;379;49.022;12.148;2022-09-09T15:09:13;21.70;72.90
792;DHT22;379;49.022;12.148;2022-09-09T15:11:41;21.70;73.00
792;DHT22;379;49.022;12.148;2022-09-09T15:14:09;21.70;73.10
792;DHT22;379;49.022;12.148;2022-09-09T15:16:38;21.70;72.80
792;DHT22;379;49.022;12.148;2022-09-09T15:19:05;21.70;72.50
792;DHT22;379;49.022;12.148;2022-09-09T15:21:33;21.60;72.70
792;DHT22;379;49.022;12.148;2022-09-09T15:24:00;21.40;73.40
792;DHT22;379;49.022;12.148;2022-09-09T15:26:28;21.20;73.40
792;DHT22;379;49.022;12.148;2022-09-09T15:28:57;21.00;74.10
792;DHT22;379;49.022;12.148;2022-09-09T15:31:26;20.90;74.80
792;DHT22;379;49.022;12.148;2022-09-09T15:33:55;20.80;74.60
792;DHT22;379;49.022;12.148;2022-09-09T15:36:27;20.70;75.20
792;DHT22;379;49.022;12.148;2022-09-09T15:38:55;20.60;75.90
792;DHT22;379;49.022;12.148;2022-09-09T15:41:22;20.60;76.40
792;DHT22;379;49.022;12.148;2022-09-09T15:43:51;20.60;76.50
792;DHT22;379;49.022;12.148;2022-09-09T15:46:26;20.60;76.60
792;DHT22;379;49.022;12.148;2022-09-09T15:48:54;20.60;76.30
792;DHT22;379;49.022;12.148;2022-09-09T15:51:22;20.60;76.70
792;DHT22;379;49.022;12.148;2022-09-09T15:53:53;20.60;76.60
792;DHT22;379;49.022;12.148;2022-09-09T15:56:21;20.60;76.40
792;DHT22;379;49.022;12.148;2022-09-09T15:58:49;20.60;76.60
792;DHT22;379;49.022;12.148;2022-09-09T16:01:16;20.60;75.70
792;DHT22;379;49.022;12.148;2022-09-09T16:03:46;20.70;75.40
792;DHT22;379;49.022;12.148;2022-09-09T16:06:15;20.60;74.80
792;DHT22;379;49.022;12.148;2022-09-09T16:08:44;20.60;75.30
792;DHT22;379;49.022;12.148;2022-09-09T16:11:13;20.60;75.40
792;DHT22;379;49.022;12.148;2022-09-09T16:13:41;20.50;75.20
792;DHT22;379;49.022;12.148;2022-09-09T16:16:10;20.50;75.20
792;DHT22;379;49.022;12.148;2022-09-09T16:18:40;20.40;75.50
792;DHT22;379;49.022;12.148;2022-09-09T16:21:13;20.30;75.20
792;DHT22;379;49.022;12.148;2022-09-09T16:23:40;20.10;75.50
792;DHT22;379;49.022;12.148;2022-09-09T16:26:10;19.90;75.90
792;DHT22;379;49.022;12.148;2022-09-09T16:28:37;19.80;76.50
792;DHT22;379;49.022;12.148;2022-09-09T16:31:05;19.60;77.20
792;DHT22;379;49.022;12.148;2022-09-09T16:33:33;19.50;78.20
792;DHT22;379;49.022;12.148;2022-09-09T16:36:05;19.40;78.30
792;DHT22;379;49.022;12.148;2022-09-09T16:38:33;19.30;78.90
792;DHT22;379;49.022;12.148;2022-09-09T16:41:01;19.20;79.20